Time;durP1;ratioP1;P1;durP2;ratioP2;P2;SDS_P1;SDS_P2;PMS_P1;PMS_P2;Temp;Humidity;BMP_temperature;BMP_pressure;BME280_temperature;BME280_humidity;BME280_pressure;Samples;Min_cycle;Max_cycle;Signal;HPM_P1;HPM_P2
2023/02/28 00:02:18;;;;;;;18.50;14.50;;;-1.00;99.90;;;;;;2614623;54;20937;-69
2023/02/28 00:04:44;;;;;;;16.17;14.60;;;-0.70;99.90;;;;;;2614193;54;20491;-69
2023/02/28 00:10:32;;;;;;;15.73;13.60;;;-0.60;99.90;;;;;;2615049;39;20555;-69
2023/02/28 00:16:21;;;;;;;14.57;12.73;;;-0.60;99.90;;;;;;2614891;54;20490;-70
2023/02/28 00:22:10;;;;;;;12.67;11.73;;;-0.30;98.50;;;;;;2614299;54;20366;-69
2023/02/28 00:27:57;;;;;;;12.83;11.87;;;-0.50;97.70;;;;;;2614344;54;20371;-69
2023/02/28 00:33:45;;;;;;;20.93;17.80;;;-0.70;99.90;;;;;;2614966;39;20527;-68
2023/02/28 00:39:37;;;;;;;24.30;18.13;;;-1.00;99.90;;;;;;2614585;54;20159;-69
2023/02/28 00:45:25;;;;;;;18.07;16.30;;;-1.40;99.90;;;;;;2614744;54;20916;-68
2023/02/28 00:51:12;;;;;;;13.67;12.33;;;-1.40;99.90;;;;;;2614875;54;20146;-69
2023/02/28 00:57:01;;;;;;;14.67;13.40;;;-1.50;99.90;;;;;;2614379;54;20227;-69
2023/02/28 01:06:51;;;;;;;11.80;10.70;;;-1.30;99.90;;;;;;2614943;39;20774;-68
2023/02/28 01:12:39;;;;;;;12.70;11.50;;;-1.30;99.90;;;;;;2614430;54;20422;-68
2023/02/28 01:18:26;;;;;;;12.17;11.07;;;-1.20;99.90;;;;;;2614060;54;20127;-68
2023/02/28 01:24:14;;;;;;;12.60;11.80;;;-1.50;99.90;;;;;;2614510;54;20134;-69
2023/02/28 01:30:02;;;;;;;11.73;10.60;;;-1.70;99.90;;;;;;2614553;54;20251;-69
2023/02/28 01:42:23;;;;;;;11.97;10.87;;;-2.10;99.90;;;;;;2613698;54;20382;-69
2023/02/28 01:48:12;;;;;;;12.20;10.40;;;-2.30;99.90;;;;;;2613555;54;20434;-69
2023/02/28 01:54:05;;;;;;;11.80;10.77;;;-2.50;99.90;;;;;;2613683;54;20475;-68
2023/02/28 01:59:58;;;;;;;12.77;11.30;;;-2.50;99.90;;;;;;2613758;54;20350;-68
2023/02/28 02:09:07;;;;;;;15.13;11.80;;;-2.90;99.90;;;;;;2613891;39;20887;-69
2023/02/28 02:21:17;;;;;;;12.50;11.30;;;-3.00;99.90;;;;;;2614952;54;20483;-68
2023/02/28 02:27:32;;;;;;;12.07;10.87;;;-3.10;99.90;;;;;;2614964;54;20391;-68
2023/02/28 02:40:02;;;;;;;11.67;10.53;;;-2.90;99.90;;;;;;2615064;54;20350;-69
2023/02/28 02:52:10;;;;;;;10.60;9.80;;;-3.10;99.90;;;;;;2615368;39;20771;-69
2023/02/28 02:58:03;;;;;;;11.60;10.60;;;-3.30;99.90;;;;;;2614635;54;20377;-68
2023/02/28 03:03:51;;;;;;;19.13;10.70;;;-3.30;99.90;;;;;;2614895;54;20358;-69
2023/02/28 03:09:38;;;;;;;9.13;8.43;;;-3.30;99.90;;;;;;2614848;54;20225;-69
2023/02/28 03:41:35;;;;;;;9.70;8.80;;;-3.10;99.90;;;;;;2614795;54;20359;-70
2023/02/28 03:47:32;;;;;;;9.97;9.13;;;-3.00;99.90;;;;;;2614998;39;20810;-69
2023/02/28 03:53:34;;;;;;;10.53;9.63;;;-3.10;99.90;;;;;;2614972;54;20362;-69
2023/02/28 03:59:29;;;;;;;9.50;8.90;;;-3.30;99.90;;;;;;2614587;54;20423;-70
2023/02/28 04:05:16;;;;;;;9.93;9.03;;;-3.40;99.90;;;;;;2614908;54;20916;-69
2023/02/28 04:08:36;;;;;;;10.40;9.57;;;-3.50;99.90;;;;;;2614080;39;20569;-69
2023/02/28 04:11:08;;;;;;;10.50;9.70;;;-3.50;99.90;;;;;;2614825;54;20289;-70
2023/02/28 04:16:55;;;;;;;11.40;10.50;;;-3.60;99.90;;;;;;2614605;54;20379;-69
2023/02/28 04:22:43;;;;;;;10.17;9.37;;;-3.50;99.90;;;;;;2614826;54;20141;-69
2023/02/28 04:28:30;;;;;;;10.00;9.20;;;-3.30;99.90;;;;;;2614529;54;20123;-71
2023/02/28 04:34:19;;;;;;;10.00;9.20;;;-3.10;99.90;;;;;;2614559;54;20139;-71
2023/02/28 04:40:07;;;;;;;10.20;9.40;;;-3.40;99.90;;;;;;2614608;54;20366;-73
2023/02/28 04:45:56;;;;;;;10.53;9.53;;;-3.40;99.90;;;;;;2614503;54;20420;-73
2023/02/28 04:51:44;;;;;;;10.87;9.87;;;-3.10;99.90;;;;;;2614648;54;20400;-73
2023/02/28 04:57:32;;;;;;;11.60;10.50;;;-3.30;99.90;;;;;;2614296;54;20180;-74
2023/02/28 05:03:21;;;;;;;10.87;9.97;;;-3.70;99.90;;;;;;2614678;54;20300;-74
2023/02/28 05:13:11;;;;;;;10.10;9.43;;;-3.70;99.90;;;;;;2614974;54;20917;-73
2023/02/28 05:18:59;;;;;;;10.67;9.83;;;-3.20;99.90;;;;;;2615124;54;20407;-73
2023/02/28 05:24:47;;;;;;;10.20;9.30;;;-2.80;99.90;;;;;;2615176;54;20122;-72
2023/02/28 05:30:34;;;;;;;10.73;9.77;;;-2.90;99.90;;;;;;2615187;54;20234;-73
2023/02/28 05:36:23;;;;;;;12.23;11.03;;;-3.00;99.90;;;;;;2615135;54;20231;-74
2023/02/28 05:42:10;;;;;;;10.97;10.07;;;-3.20;99.90;;;;;;2615283;54;21129;-73
2023/02/28 05:47:58;;;;;;;10.77;9.90;;;-3.40;99.90;;;;;;2614919;46;20172;-74
2023/02/28 05:53:48;;;;;;;11.90;11.00;;;-3.30;99.90;;;;;;2615681;39;20525;-73
2023/02/28 05:59:39;;;;;;;11.00;10.13;;;-3.60;99.90;;;;;;2615535;39;20744;-73
2023/02/28 06:05:27;;;;;;;11.70;10.90;;;-4.00;99.90;;;;;;2615002;54;20390;-74
2023/02/28 06:08:37;;;;;;;11.30;10.50;;;-4.00;99.90;;;;;;2614168;47;20457;-74
2023/02/28 06:11:04;;;;;;;11.53;10.60;;;-4.00;99.90;;;;;;2614584;47;20391;-74
2023/02/28 06:16:52;;;;;;;12.00;11.00;;;-4.00;99.90;;;;;;2614828;54;20367;-73
2023/02/28 06:22:40;;;;;;;11.47;10.70;;;-4.10;99.90;;;;;;2614863;54;20391;-73
2023/02/28 06:28:27;;;;;;;11.60;10.60;;;-4.10;99.90;;;;;;2614809;54;20390;-74
2023/02/28 06:34:17;;;;;;;11.30;10.50;;;-4.10;99.90;;;;;;2614991;54;20177;-73
2023/02/28 06:40:06;;;;;;;11.20;10.30;;;-4.00;99.90;;;;;;2614775;54;20362;-73
2023/02/28 06:45:56;;;;;;;11.93;11.03;;;-4.00;99.90;;;;;;2614658;54;20386;-73
2023/02/28 06:51:45;;;;;;;11.90;11.00;;;-3.90;99.90;;;;;;2614931;54;20391;-73
2023/02/28 06:57:34;;;;;;;13.23;12.03;;;-3.90;99.90;;;;;;2615008;54;20941;-73
2023/02/28 07:03:23;;;;;;;12.83;11.73;;;-3.70;99.90;;;;;;2614906;54;20363;-73
2023/02/28 07:13:10;;;;;;;11.60;10.60;;;-3.40;99.90;;;;;;2614906;54;20370;-73
2023/02/28 07:18:57;;;;;;;12.63;11.20;;;-3.10;99.90;;;;;;2614725;54;20410;-73
2023/02/28 07:24:45;;;;;;;12.50;11.40;;;-1.60;99.90;;;;;;2614811;54;20143;-74
2023/02/28 07:30:33;;;;;;;15.03;13.80;;;1.20;58.50;;;;;;2614703;54;20158;-73
2023/02/28 07:36:21;;;;;;;16.00;14.77;;;2.70;12.10;;;;;;2614236;54;20378;-74
2023/02/28 07:42:11;;;;;;;17.67;16.47;;;3.00;7.10;;;;;;2614490;54;20118;-73
2023/02/28 07:47:59;;;;;;;17.03;15.50;;;3.60;4.20;;;;;;2614420;54;20380;-72
2023/02/28 07:53:46;;;;;;;17.90;16.90;;;3.90;1.70;;;;;;2614584;54;20138;-72
2023/02/28 07:59:34;;;;;;;18.40;17.13;;;4.40;1.00;;;;;;2614827;39;20598;-72
2023/02/28 08:05:22;;;;;;;17.40;16.30;;;2.00;7.60;;;;;;2614493;54;20230;-73
2023/02/28 08:08:39;;;;;;;19.30;18.00;;;1.70;10.10;;;;;;2613846;54;20404;-74
2023/02/28 08:11:05;;;;;;;19.60;18.33;;;1.80;7.70;;;;;;2614608;54;20622;-73
2023/02/28 08:16:52;;;;;;;19.50;18.00;;;1.70;6.20;;;;;;2614095;54;20999;-74
2023/02/28 08:22:41;;;;;;;17.97;16.67;;;4.70;3.10;;;;;;2614466;54;20547;-74
2023/02/28 08:28:29;;;;;;;18.00;16.63;;;6.10;1.00;;;;;;2614285;54;20949;-73
2023/02/28 08:34:17;;;;;;;17.60;16.60;;;7.40;1.00;;;;;;2614674;54;20379;-74
2023/02/28 08:40:05;;;;;;;16.27;15.37;;;7.10;1.00;;;;;;2614526;54;20170;-74
2023/02/28 08:45:56;;;;;;;16.50;15.70;;;8.20;1.00;;;;;;2614551;39;20785;-73
2023/02/28 08:51:44;;;;;;;16.37;15.50;;;9.10;1.00;;;;;;2614438;54;21012;-73
2023/02/28 08:57:32;;;;;;;19.70;18.20;;;8.60;1.00;;;;;;2613936;54;20154;-73
2023/02/28 09:03:21;;;;;;;16.30;15.37;;;7.20;1.00;;;;;;2614565;54;20921;-73
2023/02/28 09:13:11;;;;;;;16.60;15.40;;;9.50;1.00;;;;;;2614502;46;20431;-73
2023/02/28 09:18:58;;;;;;;16.07;15.27;;;8.50;1.00;;;;;;2614140;54;20396;-74
2023/02/28 09:24:46;;;;;;;16.10;15.33;;;9.50;1.00;;;;;;2614493;54;20113;-74
2023/02/28 09:30:34;;;;;;;15.90;15.00;;;9.60;1.00;;;;;;2614157;54;20106;-73
2023/02/28 09:36:24;;;;;;;16.40;15.50;;;9.00;1.00;;;;;;2614068;54;20178;-73
2023/02/28 09:48:44;;;;;;;16.57;15.60;;;10.50;1.00;;;;;;2614072;54;20391;-73
2023/02/28 09:54:33;;;;;;;16.03;15.13;;;10.80;1.00;;;;;;2614607;54;20355;-73
2023/02/28 10:00:27;;;;;;;15.20;14.40;;;10.90;1.00;;;;;;2615330;54;20552;-74
2023/02/28 10:06:19;;;;;;;14.80;14.20;;;10.10;1.00;;;;;;2615191;54;21024;-74
2023/02/28 10:15:31;;;;;;;15.93;15.13;;;10.00;1.00;;;;;;2615609;54;20536;-75
2023/02/28 10:18:35;;;;;;;15.80;14.90;;;10.00;1.00;;;;;;2615255;54;21040;-74
2023/02/28 10:21:01;;;;;;;14.70;14.00;;;11.90;1.00;;;;;;2615406;54;20427;-73
2023/02/28 10:26:52;;;;;;;13.57;12.97;;;10.40;1.00;;;;;;2615241;54;20443;-73
2023/02/28 10:32:42;;;;;;;15.97;15.17;;;6.40;1.00;;;;;;2615170;54;20423;-73
2023/02/28 10:38:38;;;;;;;16.23;15.00;;;7.20;1.00;;;;;;2615100;54;20415;-74
2023/02/28 10:44:26;;;;;;;15.20;14.50;;;10.00;1.00;;;;;;2615032;54;20379;-73
2023/02/28 10:50:41;;;;;;;15.23;14.53;;;10.30;1.00;;;;;;2614877;54;20222;-73
2023/02/28 10:56:29;;;;;;;15.03;14.43;;;10.10;1.00;;;;;;2614831;54;20383;-73
2023/02/28 11:02:37;;;;;;;14.13;13.53;;;10.20;1.00;;;;;;2614911;54;20117;-72
2023/02/28 11:08:25;;;;;;;13.97;13.20;;;10.40;1.00;;;;;;2614140;39;20836;-74
2023/02/28 11:10:57;;;;;;;14.07;13.37;;;11.40;1.00;;;;;;2613035;54;20492;-72
2023/02/28 11:19:46;;;;;;;14.23;13.63;;;11.40;1.00;;;;;;2613187;54;20418;-72
2023/02/28 11:35:36;;;;;;;14.37;13.70;;;10.30;1.00;;;;;;2613422;54;21074;-73
2023/02/28 11:41:29;;;;;;;14.33;13.60;;;11.80;1.00;;;;;;2614532;46;20963;-73
2023/02/28 11:47:23;;;;;;;14.23;13.53;;;12.10;1.00;;;;;;2614569;54;20431;-73
2023/02/28 12:36:00;;;;;;;15.10;14.40;;;13.10;1.00;;;;;;2612991;54;20423;-73
2023/02/28 12:48:13;;;;;;;14.20;13.60;;;12.20;1.00;;;;;;2612998;54;20596;-73
2023/02/28 12:54:06;;;;;;;15.20;14.47;;;10.50;1.00;;;;;;2612975;54;20394;-73
2023/02/28 13:16:07;;;;;;;16.10;15.30;;;12.20;1.00;;;;;;2614104;54;20451;-73
2023/02/28 13:21:57;;;;;;;15.30;14.50;;;13.00;1.00;;;;;;2614341;54;20415;-73
2023/02/28 13:27:47;;;;;;;15.83;15.03;;;14.20;1.00;;;;;;2614226;54;20503;-72
2023/02/28 13:39:59;;;;;;;16.70;15.80;;;10.70;1.00;;;;;;2614985;54;20527;-73
2023/02/28 13:52:20;;;;;;;15.43;14.60;;;9.80;1.00;;;;;;2615256;54;20379;-72
2023/02/28 14:04:36;;;;;;;16.40;15.60;;;12.40;1.00;;;;;;2615525;39;20737;-73
2023/02/28 14:10:58;;;;;;;17.07;15.80;;;10.80;1.00;;;;;;2615046;54;20427;-73
2023/02/28 14:16:49;;;;;;;16.37;15.63;;;11.40;1.00;;;;;;2614758;54;20415;-73
2023/02/28 14:36:04;;;;;;;18.40;17.50;;;11.30;1.00;;;;;;2615225;39;20778;-73
2023/02/28 14:41:52;;;;;;;18.03;17.23;;;11.20;1.00;;;;;;2614651;54;20387;-73
2023/02/28 14:47:42;;;;;;;17.10;16.10;;;11.80;1.00;;;;;;2615127;54;20126;-72
2023/02/28 14:53:36;;;;;;;18.00;17.10;;;11.60;1.00;;;;;;2614856;54;20416;-73
2023/02/28 14:59:33;;;;;;;17.43;16.63;;;11.90;1.00;;;;;;2614760;54;20964;-73
2023/02/28 15:05:31;;;;;;;16.97;16.13;;;11.00;1.00;;;;;;2614802;54;21339;-72
2023/02/28 15:15:31;;;;;;;16.80;15.80;;;11.20;1.00;;;;;;2614691;54;20387;-73
2023/02/28 15:40:14;;;;;;;17.67;16.67;;;10.10;1.00;;;;;;2614934;39;20450;-72
2023/02/28 15:46:07;;;;;;;16.70;15.80;;;8.80;1.00;;;;;;2614502;54;20363;-71
2023/02/28 15:51:58;;;;;;;17.50;16.50;;;7.60;1.00;;;;;;2614458;54;20415;-69
2023/02/28 15:57:49;;;;;;;16.20;15.40;;;8.10;1.00;;;;;;2614723;54;20391;-69
2023/02/28 16:10:13;;;;;;;17.20;16.20;;;7.90;1.00;;;;;;2613435;39;20880;-70
2023/02/28 16:16:01;;;;;;;17.30;16.20;;;7.90;1.00;;;;;;2613518;31;20930;-70
2023/02/28 16:19:16;;;;;;;17.67;16.17;;;8.30;1.00;;;;;;2612839;54;20411;-70
2023/02/28 16:25:07;;;;;;;18.80;17.67;;;8.00;1.00;;;;;;2612610;54;20990;-70
2023/02/28 16:30:54;;;;;;;18.53;17.53;;;7.70;1.00;;;;;;2612981;46;20405;-70
2023/02/28 16:36:42;;;;;;;18.47;17.47;;;7.00;1.00;;;;;;2612748;54;20123;-70
2023/02/28 16:42:31;;;;;;;17.30;16.10;;;6.60;1.00;;;;;;2612791;54;20255;-70
2023/02/28 16:48:19;;;;;;;19.43;18.23;;;5.30;1.00;;;;;;2614525;54;20371;-70
2023/02/28 16:54:07;;;;;;;17.47;16.47;;;4.90;1.00;;;;;;2614404;54;20241;-70
2023/02/28 16:59:54;;;;;;;18.63;17.53;;;4.70;1.00;;;;;;2614352;54;20122;-69
2023/02/28 17:05:42;;;;;;;17.90;16.90;;;4.60;1.00;;;;;;2614015;54;20147;-71
2023/02/28 17:11:30;;;;;;;18.23;17.27;;;4.40;1.00;;;;;;2614402;54;20118;-70
2023/02/28 17:14:44;;;;;;;17.80;16.90;;;4.30;1.00;;;;;;2614272;54;20371;-70
2023/02/28 17:17:17;;;;;;;18.53;17.50;;;4.10;1.00;;;;;;2613345;54;20177;-70
2023/02/28 17:23:06;;;;;;;17.30;16.30;;;3.90;1.00;;;;;;2614875;39;20938;-70
2023/02/28 17:28:55;;;;;;;15.87;14.83;;;3.90;1.00;;;;;;2614193;54;20407;-69
2023/02/28 17:34:44;;;;;;;19.63;18.40;;;3.60;1.00;;;;;;2614747;54;20355;-70
2023/02/28 17:40:33;;;;;;;18.90;17.80;;;3.50;1.00;;;;;;2614216;54;20338;-70
2023/02/28 17:46:24;;;;;;;18.20;16.60;;;3.40;1.00;;;;;;2614098;54;20354;-70
2023/02/28 17:52:12;;;;;;;18.83;17.57;;;3.30;1.00;;;;;;2614061;54;20945;-70
2023/02/28 17:58:00;;;;;;;18.50;17.30;;;3.00;1.00;;;;;;2614346;54;20134;-70
2023/02/28 18:03:48;;;;;;;19.40;18.30;;;2.70;1.00;;;;;;2614300;47;20608;-69
2023/02/28 18:09:35;;;;;;;20.93;19.27;;;2.70;1.00;;;;;;2614266;54;20382;-70
2023/02/28 18:25:40;;;;;;;20.27;18.90;;;2.20;1.00;;;;;;2613278;54;20411;-71
2023/02/28 18:31:27;;;;;;;20.20;18.90;;;2.10;1.00;;;;;;2613497;54;20367;-71
2023/02/28 18:37:17;;;;;;;19.80;18.57;;;2.00;1.00;;;;;;2613389;54;20126;-70
2023/02/28 18:43:05;;;;;;;21.27;19.90;;;1.50;4.40;;;;;;2613525;54;21026;-70
2023/02/28 18:48:52;;;;;;;24.20;22.10;;;1.10;13.40;;;;;;2613396;54;20502;-70
2023/02/28 18:54:39;;;;;;;22.63;20.63;;;0.80;20.60;;;;;;2613550;54;20122;-71
2023/02/28 19:00:26;;;;;;;23.10;20.90;;;0.70;27.20;;;;;;2614927;54;20640;-72
2023/02/28 19:06:15;;;;;;;22.50;20.90;;;0.60;42.60;;;;;;2614883;54;20159;-71
2023/02/28 19:12:02;;;;;;;24.43;22.53;;;0.70;37.60;;;;;;2615056;54;20366;-71
2023/02/28 19:14:45;;;;;;;25.10;22.97;;;0.60;37.50;;;;;;2614195;48;20379;-71
2023/02/28 19:17:13;;;;;;;23.60;21.77;;;0.80;35.60;;;;;;2615450;31;20594;-71
2023/02/28 19:23:01;;;;;;;23.97;21.90;;;0.70;28.20;;;;;;2614845;54;20346;-72
2023/02/28 19:28:48;;;;;;;25.23;23.03;;;0.80;27.90;;;;;;2614676;54;20239;-70
2023/02/28 19:34:36;;;;;;;24.47;22.30;;;0.70;28.70;;;;;;2614696;47;20769;-71
2023/02/28 19:40:23;;;;;;;23.93;22.13;;;0.30;41.50;;;;;;2614649;54;20771;-71
2023/02/28 19:46:12;;;;;;;25.40;23.30;;;0.40;52.00;;;;;;2614353;54;20139;-70
2023/02/28 19:51:59;;;;;;;25.37;22.97;;;0.30;47.10;;;;;;2614677;54;20363;-70
2023/02/28 19:57:47;;;;;;;25.37;23.10;;;0.20;57.00;;;;;;2614531;54;20142;-71
2023/02/28 20:03:35;;;;;;;23.13;21.00;;;0.20;57.60;;;;;;2614481;54;20241;-70
2023/02/28 20:09:23;;;;;;;22.57;20.60;;;0.00;64.80;;;;;;2614747;39;20503;-72
2023/02/28 20:19:17;;;;;;;22.77;20.67;;;0.50;48.30;;;;;;2614471;54;20390;-71
2023/02/28 20:25:06;;;;;;;21.70;19.60;;;0.30;50.10;;;;;;2614595;54;20957;-70
2023/02/28 20:30:54;;;;;;;24.53;22.30;;;-0.10;61.70;;;;;;2614465;54;20368;-70
2023/02/28 20:36:43;;;;;;;22.70;20.63;;;-0.40;57.30;;;;;;2614668;54;20143;-70
2023/02/28 20:42:30;;;;;;;21.33;19.70;;;-0.40;69.30;;;;;;2614314;54;21035;-70
2023/02/28 20:48:18;;;;;;;22.07;19.97;;;-0.60;69.00;;;;;;2614605;54;20126;-70
2023/02/28 20:54:08;;;;;;;27.40;24.07;;;-0.80;88.80;;;;;;2614435;54;20395;-71
2023/02/28 20:59:56;;;;;;;24.23;21.63;;;-0.90;84.70;;;;;;2614342;54;20394;-71
2023/02/28 21:05:43;;;;;;;24.53;22.17;;;-1.00;93.00;;;;;;2614345;54;20122;-70
2023/02/28 21:11:34;;;;;;;23.40;21.10;;;-1.10;96.20;;;;;;2614602;54;20150;-70
2023/02/28 21:14:44;;;;;;;24.47;21.97;;;-1.10;97.10;;;;;;2614410;54;20383;-70
2023/02/28 21:17:09;;;;;;;26.90;24.27;;;-1.10;98.80;;;;;;2614485;54;20384;-70
2023/02/28 21:22:57;;;;;;;26.37;24.00;;;-1.20;99.90;;;;;;2614390;54;20118;-70
2023/02/28 21:28:54;;;;;;;25.90;23.40;;;-1.30;99.90;;;;;;2614297;54;20129;-70
2023/02/28 21:34:41;;;;;;;26.27;23.57;;;-1.50;99.90;;;;;;2614164;54;21207;-70
2023/02/28 21:40:29;;;;;;;26.63;23.83;;;-1.50;99.90;;;;;;2614511;54;20203;-70
2023/02/28 21:46:20;;;;;;;26.83;23.97;;;-1.70;99.90;;;;;;2614325;54;20118;-71
2023/02/28 21:52:08;;;;;;;30.13;24.43;;;-1.70;99.90;;;;;;2614998;39;20948;-71
2023/02/28 21:55:11;;;;;;;25.00;22.37;;;-1.70;99.90;;;;;;2614390;46;20431;-70
2023/02/28 21:57:36;;;;;;;24.00;21.70;;;-1.70;99.90;;;;;;2615084;54;20158;-71
2023/02/28 22:03:26;;;;;;;24.27;21.83;;;-1.90;99.90;;;;;;2614994;54;20126;-71
2023/02/28 22:09:13;;;;;;;24.23;21.90;;;-1.80;99.90;;;;;;2615089;54;20382;-71
2023/02/28 22:19:16;;;;;;;21.63;19.70;;;-1.80;99.90;;;;;;2614901;54;20987;-71
2023/02/28 22:25:05;;;;;;;23.73;21.10;;;-1.80;99.90;;;;;;2614873;54;20350;-70
2023/02/28 22:30:53;;;;;;;25.27;22.57;;;-1.40;99.90;;;;;;2614975;54;20438;-70
2023/02/28 22:36:41;;;;;;;23.90;21.60;;;-1.20;99.90;;;;;;2615101;54;20142;-70
2023/02/28 22:42:33;;;;;;;24.20;22.00;;;-1.40;99.90;;;;;;2615043;54;20354;-71
2023/02/28 22:48:20;;;;;;;25.27;22.40;;;-1.30;99.90;;;;;;2615374;31;20826;-70
2023/02/28 22:54:08;;;;;;;23.47;21.03;;;-1.60;99.90;;;;;;2615183;54;20169;-70
2023/02/28 22:59:56;;;;;;;24.37;21.93;;;-1.80;99.90;;;;;;2614804;46;20414;-70
2023/02/28 23:05:44;;;;;;;25.40;20.67;;;-2.00;99.90;;;;;;2614261;54;20150;-71
2023/02/28 23:11:35;;;;;;;24.00;21.60;;;-1.90;99.90;;;;;;2614736;54;20162;-70
2023/02/28 23:14:45;;;;;;;25.73;21.50;;;-1.90;99.90;;;;;;2615023;54;20419;-70
2023/02/28 23:17:11;;;;;;;23.67;21.17;;;-1.90;99.90;;;;;;2614831;54;20411;-70
2023/02/28 23:22:58;;;;;;;23.80;21.30;;;-2.00;99.90;;;;;;2614715;54;20964;-70
2023/02/28 23:28:46;;;;;;;23.53;20.77;;;-2.30;99.90;;;;;;2614931;54;20139;-74
2023/02/28 23:34:34;;;;;;;24.27;22.00;;;-2.20;99.90;;;;;;2614747;54;20170;-74
2023/02/28 23:40:22;;;;;;;26.50;23.57;;;-2.30;99.90;;;;;;2615045;54;20118;-74
2023/02/28 23:46:11;;;;;;;25.30;21.67;;;-2.60;99.90;;;;;;2614689;54;20123;-74
2023/02/28 23:52:00;;;;;;;28.00;22.30;;;-2.60;99.90;;;;;;2614901;54;20374;-74
2023/02/28 23:57:48;;;;;;;24.13;21.73;;;-2.70;99.90;;;;;;2614739;54;20422;-75
